KCLS/CLS METAR and TAF weather

Enter ICAO airport designator
Station Type Date Time Source
KCLS METAR 2019/04/25 02:35 UTC NOAA

KCLS 250235Z AUTO 03007KT 10SM CLR 15/04 A3025 RMK AO2


Station Type Date Time Source
KCLS Decoded METAR 2019/04/25 02:35 UTC NOAA

Station name not available
Apr 24, 2019 - 10:35 PM EDT / 2019.04.25 0235 UTC
Wind: from the NNE (030 degrees) at 8 MPH (7 KT):0
Visibility: 10 mile(s):0
Sky conditions: clear
Temperature: 59 F (15 C)
Dew Point: 39 F (4 C)
Relative Humidity: 47%
Pressure (altimeter): 30.25 in. Hg (1024 hPa)
ob: KCLS 250235Z AUTO 03007KT 10SM CLR 15/04 A3025 RMK AO2
cycle: 2

Station Type Date Time Source
KCLS TAF UTC NOAA

Error!

Example: see airport list